createdAt,value
2019-01-26T00:02:29.371Z,18.00
2019-01-26T00:05:09.726Z,17.42
2019-01-26T00:07:50.433Z,17.30
2019-01-26T00:10:31.170Z,16.57
2019-01-26T00:13:11.939Z,16.60
2019-01-26T00:15:52.805Z,16.05
2019-01-26T00:18:33.087Z,14.75
2019-01-26T00:21:14.027Z,15.58
2019-01-26T00:23:54.641Z,13.00
2019-01-26T00:26:36.445Z,14.85
2019-01-26T00:29:18.109Z,15.98
2019-01-26T00:32:00.927Z,16.87
2019-01-26T00:34:42.208Z,15.15
2019-01-26T00:37:22.767Z,15.95
2019-01-26T00:40:03.335Z,14.75
2019-01-26T00:42:44.057Z,14.05
2019-01-26T00:45:24.872Z,14.25
2019-01-26T00:48:05.816Z,13.08
2019-01-26T00:50:46.859Z,14.23
2019-01-26T00:53:27.639Z,14.07
2019-01-26T00:56:08.223Z,15.72
2019-01-26T00:58:48.828Z,14.28
2019-01-26T01:01:29.591Z,14.53
2019-01-26T01:04:10.297Z,13.45
2019-01-26T01:06:51.547Z,13.03
2019-01-26T01:09:50.680Z,13.25
2019-01-26T01:12:36.025Z,13.85
2019-01-26T01:47:44.043Z,11.97
2019-01-26T01:50:25.376Z,10.80
2019-01-26T01:53:05.854Z,11.05
2019-01-26T01:55:46.751Z,10.95
2019-01-26T01:58:28.077Z,11.00
2019-01-26T02:01:30.914Z,9.75
2019-01-26T02:06:56.199Z,9.90
2019-01-26T02:09:37.547Z,9.28
2019-01-26T02:12:18.455Z,9.43
2019-01-26T02:14:59.639Z,9.00
2019-01-26T02:17:40.478Z,9.20
2019-01-26T02:20:21.287Z,9.73
2019-01-26T02:23:03.047Z,9.15
2019-01-26T02:25:44.123Z,8.10
2019-01-26T02:28:25.099Z,8.13
2019-01-26T02:31:05.991Z,8.60
2019-01-26T02:33:46.733Z,7.80
2019-01-26T02:36:27.347Z,8.50
2019-01-26T02:39:08.174Z,7.70
2019-01-26T02:41:48.608Z,8.65
2019-01-26T02:44:29.465Z,8.13
2019-01-26T02:47:10.125Z,7.35
2019-01-26T02:49:50.987Z,6.05
2019-01-26T02:52:31.591Z,6.92
2019-01-26T02:55:12.113Z,7.47
2019-01-26T02:57:52.895Z,7.65
2019-01-26T03:00:33.607Z,6.85
2019-01-26T03:03:14.505Z,6.15
2019-01-26T03:05:55.231Z,6.25
2019-01-26T03:17:44.588Z,5.30
2019-01-26T03:20:16.360Z,4.60
2019-01-26T03:22:57.583Z,4.92
2019-01-26T03:25:38.696Z,4.60
2019-01-26T03:28:19.503Z,4.10
2019-01-26T03:31:00.240Z,3.87
2019-01-26T03:33:40.768Z,3.47
2019-01-26T03:36:21.439Z,4.10
2019-01-26T03:39:02.179Z,3.12
2019-01-26T03:41:43.543Z,3.72
2019-01-26T03:44:24.221Z,3.95
2019-01-26T03:47:04.578Z,3.42
2019-01-26T03:49:45.399Z,3.10
2019-01-26T03:52:26.004Z,3.12
2019-01-26T03:55:06.881Z,3.12
2019-01-26T03:57:47.706Z,3.12
2019-01-26T04:00:28.357Z,2.77
2019-01-26T04:03:09.029Z,3.17
2019-01-26T04:08:32.075Z,3.02
2019-01-26T04:11:13.208Z,2.77
2019-01-26T04:13:53.755Z,2.60
2019-01-26T04:16:34.679Z,2.80
2019-01-26T04:19:15.374Z,2.50
2019-01-26T04:21:56.171Z,2.55
2019-01-26T04:24:36.705Z,2.45
2019-01-26T04:27:17.461Z,2.53
2019-01-26T04:29:58.223Z,2.30
2019-01-26T04:32:39.043Z,2.30
2019-01-26T04:35:19.719Z,2.50
2019-01-26T04:38:00.336Z,2.30
2019-01-26T04:40:43.400Z,2.35
2019-01-26T04:43:25.506Z,3.05
2019-01-26T04:46:06.848Z,2.83
2019-01-26T04:52:14.445Z,3.90
2019-01-26T04:56:02.687Z,3.10
2019-01-26T06:28:47.092Z,1.32
2019-01-26T06:31:29.391Z,1.60
2019-01-26T06:34:10.535Z,1.20
2019-01-26T06:36:51.027Z,1.07
2019-01-26T06:39:31.981Z,1.20
2019-01-26T06:42:13.167Z,1.50
2019-01-26T06:44:53.687Z,2.27
2019-01-26T06:47:34.180Z,1.80
2019-01-26T06:50:14.788Z,2.63
2019-01-26T06:52:55.340Z,4.50
2019-01-26T06:55:36.115Z,7.60
2019-01-26T06:58:16.813Z,9.95
2019-01-26T07:00:57.719Z,10.00
2019-01-26T07:03:38.421Z,9.97
2019-01-26T07:06:22.582Z,12.93
2019-01-26T07:09:04.836Z,14.00
2019-01-26T08:07:58.765Z,20.60
2019-01-26T08:10:39.976Z,25.10
2019-01-26T08:42:44.812Z,12.93
2019-01-26T08:48:44.428Z,16.30
2019-01-26T08:51:25.149Z,16.97
2019-01-26T08:54:05.702Z,13.67
2019-01-26T08:56:46.500Z,20.33
2019-01-26T08:59:27.675Z,16.90
2019-01-26T09:11:04.327Z,25.00
2019-01-26T09:31:14.718Z,24.60
2019-01-26T09:33:55.268Z,30.83
2019-01-26T09:36:35.787Z,29.63
2019-01-26T09:39:16.644Z,22.23
2019-01-26T09:41:58.078Z,27.63
2019-01-26T09:44:38.839Z,22.03
2019-01-26T09:47:20.245Z,19.20
2019-01-26T09:50:01.157Z,18.77
2019-01-26T09:52:41.943Z,22.93
2019-01-26T09:55:22.610Z,23.23
2019-01-26T09:58:03.110Z,27.27
2019-01-26T10:00:44.338Z,24.67
2019-01-26T10:21:25.984Z,13.90
2019-01-26T10:24:07.695Z,14.43
2019-01-26T10:26:48.744Z,15.80
2019-01-26T10:29:29.769Z,20.63
2019-01-26T10:32:10.185Z,33.63
2019-01-26T10:34:51.137Z,23.23
2019-01-26T10:37:32.166Z,26.83
2019-01-26T10:46:43.135Z,22.10
2019-01-26T10:49:00.824Z,21.20
2019-01-26T10:54:41.592Z,23.53
2019-01-26T10:57:43.798Z,22.73
2019-01-26T11:00:24.924Z,25.20
2019-01-26T11:03:05.976Z,29.87
2019-01-26T11:05:52.633Z,33.47
2019-01-26T11:08:50.559Z,28.03
2019-01-26T11:11:36.007Z,34.33
2019-01-26T11:26:18.509Z,43.83
2019-01-26T11:50:16.335Z,38.87
2019-01-26T11:52:57.648Z,37.20
2019-01-26T11:55:57.181Z,41.13
2019-01-26T11:58:37.604Z,39.60
2019-01-26T12:01:40.427Z,41.03
2019-01-26T12:04:24.924Z,32.77
2019-01-26T12:07:08.384Z,40.73
2019-01-26T12:09:51.537Z,38.20
2019-01-26T12:12:32.292Z,31.53
2019-01-26T12:15:13.200Z,24.97
2019-01-26T12:17:53.939Z,25.93
2019-01-26T12:20:34.779Z,24.30
2019-01-26T12:23:15.380Z,31.93
2019-01-26T12:25:55.939Z,34.43
2019-01-26T12:28:36.545Z,43.83
2019-01-26T12:31:17.396Z,39.70
2019-01-26T12:33:58.501Z,46.73
2019-01-26T12:36:39.119Z,51.50
2019-01-26T13:49:32.304Z,33.03
2019-01-26T13:52:13.052Z,34.83
2019-01-26T13:54:53.971Z,45.63
2019-01-26T13:57:34.852Z,41.03
2019-01-26T14:00:15.652Z,51.67
2019-01-26T14:02:56.828Z,59.27
2019-01-26T14:05:37.519Z,53.50
2019-01-26T14:08:18.231Z,49.10
2019-01-26T14:10:58.959Z,65.40
2019-01-26T14:13:39.899Z,41.33
2019-01-26T14:16:20.520Z,28.30
2019-01-26T14:19:01.226Z,27.43
2019-01-26T14:21:41.936Z,28.53
2019-01-26T14:24:25.822Z,15.83
2019-01-26T15:07:59.360Z,68.47
2019-01-26T15:10:39.982Z,87.80
2019-01-26T15:13:20.515Z,76.13
2019-01-26T15:16:01.208Z,97.50
2019-01-26T15:18:41.687Z,179.10
2019-01-26T15:21:22.741Z,198.00
2019-01-26T15:24:03.799Z,142.47
2019-01-26T15:26:44.557Z,116.63
2019-01-26T15:29:25.133Z,136.47
2019-01-26T15:32:05.736Z,143.67
2019-01-26T15:34:46.443Z,168.40
2019-01-26T15:37:27.104Z,129.83
2019-01-26T15:40:07.897Z,155.37
2019-01-26T15:42:48.553Z,94.37
2019-01-26T15:45:28.951Z,127.00
2019-01-26T15:48:09.604Z,84.13
2019-01-26T15:50:50.424Z,73.37
2019-01-26T15:53:32.186Z,90.17
2019-01-26T15:56:12.622Z,106.40
2019-01-26T15:58:53.227Z,91.37
2019-01-26T16:01:33.911Z,86.13
2019-01-26T16:04:14.624Z,68.70
2019-01-26T16:06:55.351Z,63.40
2019-01-26T16:09:35.799Z,66.23
2019-01-26T16:12:16.762Z,69.77
2019-01-26T16:14:58.075Z,75.27
2019-01-26T16:17:38.799Z,77.70
2019-01-26T16:20:20.357Z,113.97
2019-01-26T16:23:01.275Z,83.47
2019-01-26T16:25:42.060Z,85.57
2019-01-26T16:28:22.503Z,93.10
2019-01-26T16:31:03.516Z,76.53
2019-01-26T16:33:44.236Z,76.23
2019-01-26T16:36:24.970Z,77.93
2019-01-26T16:41:55.187Z,87.87
2019-01-26T16:44:35.618Z,80.03
2019-01-26T16:47:16.210Z,80.53
2019-01-26T16:49:56.915Z,75.83
2019-01-26T16:52:37.496Z,79.20
2019-01-26T16:55:18.201Z,90.23
2019-01-26T16:57:58.884Z,70.23
2019-01-26T17:00:39.788Z,71.97
2019-01-26T17:03:20.664Z,84.50
2019-01-26T17:06:01.241Z,72.40
2019-01-26T17:08:41.851Z,81.10
2019-01-26T17:11:22.455Z,64.37
2019-01-26T17:14:02.971Z,41.20
2019-01-26T17:16:43.816Z,35.43
2019-01-26T17:19:24.478Z,54.10
2019-01-26T17:22:05.041Z,54.90
2019-01-26T17:24:45.982Z,33.83
2019-01-26T17:27:26.843Z,55.13
2019-01-26T17:30:07.575Z,43.80
2019-01-26T17:32:48.245Z,49.37
2019-01-26T17:35:29.160Z,74.17
2019-01-26T17:38:10.013Z,89.30
2019-01-26T17:40:54.546Z,93.97
2019-01-26T17:43:33.263Z,97.87
2019-01-26T17:46:13.807Z,136.53
2019-01-26T17:51:43.652Z,137.70
2019-01-26T17:54:24.104Z,118.83
2019-01-26T17:57:05.543Z,113.13
2019-01-26T18:02:30.339Z,126.43
2019-01-26T18:16:50.652Z,124.80
2019-01-26T18:22:19.067Z,119.47
2019-01-26T18:25:00.231Z,126.47
2019-01-26T18:27:40.789Z,126.57
2019-01-26T18:30:21.764Z,108.33
2019-01-26T18:33:02.231Z,138.27
2019-01-26T18:35:43.032Z,144.43
2019-01-26T18:38:25.985Z,152.70
2019-01-26T18:41:06.747Z,143.77
2019-01-26T18:43:47.176Z,124.20
2019-01-26T18:46:27.779Z,117.40
2019-01-26T18:49:08.692Z,158.97
2019-01-26T18:51:49.164Z,129.87
2019-01-26T18:54:29.835Z,129.33
2019-01-26T18:57:10.714Z,101.50
2019-01-26T18:59:53.649Z,123.33
2019-01-26T19:02:34.377Z,119.30
2019-01-26T19:05:15.106Z,125.67
2019-01-26T19:07:56.591Z,133.63
2019-01-26T19:10:37.233Z,122.50
2019-01-26T19:13:18.052Z,129.40
2019-01-26T19:15:58.692Z,126.60
2019-01-26T19:18:39.317Z,140.90
2019-01-26T19:21:20.203Z,95.27
2019-01-26T19:24:01.143Z,102.93
2019-01-26T19:26:41.786Z,133.13
2019-01-26T19:29:22.562Z,121.77
2019-01-26T19:32:03.483Z,125.83
2019-01-26T19:37:33.064Z,117.97
2019-01-26T19:40:14.302Z,115.33
2019-01-26T19:42:54.977Z,115.43
2019-01-26T19:45:35.440Z,125.23
2019-01-26T19:48:16.045Z,129.90
2019-01-26T19:50:56.635Z,116.17
2019-01-26T19:53:38.343Z,106.67
2019-01-26T19:56:19.145Z,151.50
2019-01-26T19:58:59.755Z,126.87
2019-01-26T20:01:41.317Z,112.53
2019-01-26T20:04:22.440Z,124.60
2019-01-26T20:07:04.343Z,144.67
2019-01-26T20:09:45.004Z,125.23
2019-01-26T20:12:26.008Z,126.80
2019-01-26T20:15:07.167Z,103.47
2019-01-26T20:20:33.541Z,95.57
2019-01-26T20:23:14.004Z,109.10
2019-01-26T20:25:54.635Z,91.43
2019-01-26T20:31:30.692Z,23.63
2019-01-26T20:42:55.313Z,124.60
2019-01-26T21:09:13.475Z,36.17
